createdAt,value
2018-10-03T00:02:21.724Z,15.00
2018-10-03T00:04:49.576Z,15.00
2018-10-03T00:07:16.400Z,15.00
2018-10-03T00:09:43.668Z,15.00
2018-10-03T00:12:11.049Z,15.00
2018-10-03T00:14:39.480Z,15.00
2018-10-03T00:17:06.274Z,15.00
2018-10-03T00:19:33.121Z,15.00
2018-10-03T00:21:59.828Z,15.00
2018-10-03T00:24:27.226Z,15.00
2018-10-03T00:26:54.991Z,14.90
2018-10-03T00:29:22.077Z,14.90
2018-10-03T00:31:48.875Z,14.90
2018-10-03T00:34:15.949Z,14.90
2018-10-03T00:36:42.759Z,14.90
2018-10-03T00:39:10.521Z,14.90
2018-10-03T00:41:37.681Z,14.90
2018-10-03T00:44:05.161Z,14.90
2018-10-03T00:46:32.055Z,14.90
2018-10-03T00:48:58.799Z,14.90
2018-10-03T00:51:25.597Z,14.90
2018-10-03T00:53:52.476Z,14.90
2018-10-03T00:56:19.326Z,14.90
2018-10-03T00:58:46.381Z,14.90
2018-10-03T01:01:16.380Z,14.80
2018-10-03T01:03:43.772Z,14.90
2018-10-03T01:06:11.802Z,14.80
2018-10-03T01:08:38.542Z,14.80
2018-10-03T01:11:05.255Z,14.80
2018-10-03T01:13:32.759Z,14.80
2018-10-03T01:15:59.511Z,14.80
2018-10-03T01:18:26.181Z,14.80
2018-10-03T01:20:53.220Z,14.80
2018-10-03T01:23:20.068Z,14.80
2018-10-03T01:25:46.945Z,14.80
2018-10-03T01:28:13.933Z,14.80
2018-10-03T01:30:40.686Z,14.80
2018-10-03T01:33:07.360Z,14.80
2018-10-03T01:35:34.062Z,14.80
2018-10-03T01:38:01.048Z,14.80
2018-10-03T01:40:28.140Z,14.80
2018-10-03T01:42:55.209Z,14.80
2018-10-03T01:45:23.030Z,14.80
2018-10-03T01:47:50.130Z,14.70
2018-10-03T01:50:16.922Z,14.70
2018-10-03T01:52:43.909Z,14.70
2018-10-03T01:55:10.660Z,14.70
2018-10-03T01:57:38.178Z,14.70
2018-10-03T02:00:05.059Z,14.70
2018-10-03T02:02:31.794Z,14.70
2018-10-03T02:04:58.545Z,14.70
2018-10-03T02:07:25.457Z,14.70
2018-10-03T02:09:52.453Z,14.60
2018-10-03T02:12:19.647Z,14.70
2018-10-03T02:14:46.471Z,14.60
2018-10-03T02:17:13.162Z,14.60
2018-10-03T02:19:39.917Z,14.60
2018-10-03T02:22:06.696Z,14.60
2018-10-03T02:24:34.186Z,14.60
2018-10-03T02:27:01.209Z,14.60
2018-10-03T02:29:28.435Z,14.60
2018-10-03T02:31:55.326Z,14.60
2018-10-03T02:34:22.016Z,14.60
2018-10-03T02:36:49.544Z,14.60
2018-10-03T02:39:16.343Z,14.60
2018-10-03T02:41:43.917Z,14.60
2018-10-03T02:44:10.823Z,14.60
2018-10-03T02:46:37.936Z,14.60
2018-10-03T02:49:04.645Z,14.50
2018-10-03T02:51:31.873Z,14.50
2018-10-03T02:53:58.874Z,14.50
2018-10-03T02:56:26.273Z,14.50
2018-10-03T02:58:53.049Z,14.50
2018-10-03T03:01:19.935Z,14.40
2018-10-03T03:03:46.752Z,14.30
2018-10-03T03:06:13.553Z,14.50
2018-10-03T03:08:40.547Z,14.50
2018-10-03T03:11:07.473Z,14.50
2018-10-03T03:13:34.453Z,14.60
2018-10-03T03:16:01.156Z,14.50
2018-10-03T03:18:27.883Z,14.40
2018-10-03T03:20:54.636Z,14.40
2018-10-03T03:23:21.578Z,14.40
2018-10-03T03:25:48.496Z,14.40
2018-10-03T03:28:15.611Z,14.40
2018-10-03T03:30:42.593Z,14.40
2018-10-03T03:33:09.496Z,14.40
2018-10-03T03:35:36.228Z,14.40
2018-10-03T03:38:02.980Z,14.40
2018-10-03T03:40:29.802Z,14.40
2018-10-03T03:42:56.622Z,14.10
2018-10-03T03:45:23.622Z,14.40
2018-10-03T03:47:51.200Z,14.30
2018-10-03T03:50:17.950Z,14.30
2018-10-03T03:52:44.648Z,14.30
2018-10-03T03:55:11.438Z,14.30
2018-10-03T03:57:39.271Z,14.30
2018-10-03T04:00:05.996Z,14.30
2018-10-03T04:02:33.188Z,14.30
2018-10-03T04:04:59.994Z,14.30
2018-10-03T04:07:26.862Z,14.30
2018-10-03T04:09:53.768Z,14.30
2018-10-03T04:12:21.142Z,14.20
2018-10-03T04:14:47.941Z,14.20
2018-10-03T04:17:15.720Z,14.20
2018-10-03T04:19:42.688Z,14.20
2018-10-03T04:22:10.176Z,14.20
2018-10-03T04:24:36.970Z,14.20
2018-10-03T04:27:03.802Z,14.20
2018-10-03T04:29:30.528Z,14.20
2018-10-03T04:31:57.548Z,14.20
2018-10-03T04:34:24.911Z,14.10
2018-10-03T04:36:51.570Z,14.10
2018-10-03T04:39:19.238Z,14.10
2018-10-03T04:41:46.923Z,14.10
2018-10-03T04:44:14.265Z,14.10
2018-10-03T04:46:41.161Z,14.10
2018-10-03T04:49:08.067Z,14.10
2018-10-03T04:51:35.397Z,14.10
2018-10-03T04:54:02.292Z,13.70
2018-10-03T04:56:29.055Z,14.10
2018-10-03T04:58:55.812Z,14.00
2018-10-03T05:01:22.747Z,14.00
2018-10-03T05:03:49.539Z,14.00
2018-10-03T05:06:16.412Z,14.00
2018-10-03T05:08:43.300Z,14.00
2018-10-03T05:11:10.168Z,14.00
2018-10-03T05:13:37.599Z,14.00
2018-10-03T05:16:04.313Z,13.90
2018-10-03T05:18:31.368Z,13.90
2018-10-03T05:20:58.112Z,13.90
2018-10-03T05:23:24.961Z,13.90
2018-10-03T05:25:51.914Z,13.90
2018-10-03T05:28:19.578Z,13.90
2018-10-03T05:30:46.621Z,13.90
2018-10-03T05:33:13.369Z,13.90
2018-10-03T05:35:40.472Z,13.80
2018-10-03T05:38:07.465Z,13.90
2018-10-03T05:40:34.493Z,13.80
2018-10-03T05:43:02.217Z,13.80
2018-10-03T05:45:29.251Z,13.80
2018-10-03T05:47:56.368Z,13.80
2018-10-03T05:50:23.426Z,13.80
2018-10-03T05:52:50.534Z,13.80
2018-10-03T05:55:17.376Z,13.80
2018-10-03T05:57:44.268Z,13.70
2018-10-03T06:00:11.215Z,13.70
2018-10-03T06:02:38.757Z,13.70
2018-10-03T06:05:05.715Z,13.70
2018-10-03T06:07:32.553Z,13.70
2018-10-03T06:09:59.470Z,13.70
2018-10-03T06:12:26.366Z,13.70
2018-10-03T06:14:53.398Z,13.60
2018-10-03T06:17:21.161Z,13.60
2018-10-03T06:19:48.031Z,13.60
2018-10-03T06:22:14.950Z,13.60
2018-10-03T06:24:41.972Z,13.60
2018-10-03T06:27:08.865Z,13.60
2018-10-03T06:29:35.806Z,13.60
2018-10-03T06:32:02.626Z,13.60
2018-10-03T06:34:31.071Z,13.60
2018-10-03T06:36:58.082Z,13.60
2018-10-03T06:39:25.136Z,13.50
2018-10-03T06:41:51.967Z,13.50
2018-10-03T06:44:18.884Z,13.50
2018-10-03T06:46:46.075Z,13.50
2018-10-03T06:49:14.165Z,13.50
2018-10-03T06:51:41.271Z,13.50
2018-10-03T06:54:08.174Z,13.50
2018-10-03T06:56:35.095Z,13.50
2018-10-03T06:59:02.024Z,13.40
2018-10-03T07:01:28.972Z,13.40
2018-10-03T07:03:55.812Z,13.40
2018-10-03T07:06:23.097Z,13.40
2018-10-03T07:08:50.282Z,13.40
2018-10-03T07:11:17.121Z,13.40
2018-10-03T07:13:44.229Z,13.40
2018-10-03T07:16:11.871Z,13.40
2018-10-03T07:18:39.033Z,13.40
2018-10-03T07:21:05.806Z,13.40
2018-10-03T07:23:33.122Z,13.40
2018-10-03T07:26:00.099Z,13.40
2018-10-03T07:28:27.040Z,13.40
2018-10-03T07:30:54.499Z,13.40
2018-10-03T07:33:21.485Z,13.40
2018-10-03T07:35:48.594Z,13.40
2018-10-03T07:38:15.617Z,13.40
2018-10-03T07:40:42.664Z,13.40
2018-10-03T07:43:09.698Z,13.40
2018-10-03T07:45:36.671Z,13.40
2018-10-03T07:48:04.036Z,13.40
2018-10-03T07:50:31.074Z,13.40
2018-10-03T07:52:58.550Z,13.40
2018-10-03T07:55:25.460Z,13.40
2018-10-03T07:57:52.532Z,13.40
2018-10-03T08:00:19.585Z,13.40
2018-10-03T08:02:48.916Z,13.40
2018-10-03T08:05:16.042Z,13.40
2018-10-03T08:07:43.196Z,13.40
2018-10-03T08:10:10.206Z,13.40
2018-10-03T08:12:37.380Z,13.50
2018-10-03T08:15:04.367Z,13.50
2018-10-03T08:17:31.883Z,13.50
2018-10-03T08:19:58.764Z,13.50
2018-10-03T08:22:26.822Z,13.50
2018-10-03T08:24:54.058Z,13.50
2018-10-03T08:27:21.458Z,13.60
2018-10-03T08:29:48.773Z,13.60
2018-10-03T08:32:16.588Z,13.60
2018-10-03T08:34:43.488Z,13.60
2018-10-03T08:37:10.315Z,13.60
2018-10-03T08:39:38.589Z,13.70
2018-10-03T08:42:05.549Z,13.70
2018-10-03T08:44:32.700Z,13.70
2018-10-03T08:46:59.643Z,13.70
2018-10-03T08:49:26.495Z,13.80
2018-10-03T08:51:54.201Z,13.80
2018-10-03T08:54:20.950Z,13.80
2018-10-03T08:56:47.760Z,13.80
2018-10-03T08:59:14.892Z,13.90
2018-10-03T09:01:41.730Z,13.90
2018-10-03T09:04:08.496Z,13.90
2018-10-03T09:06:36.212Z,13.90
2018-10-03T09:09:03.702Z,14.00
2018-10-03T09:11:30.854Z,14.00
2018-10-03T09:13:57.694Z,14.00
2018-10-03T09:16:24.737Z,14.10
2018-10-03T09:18:51.476Z,14.10
2018-10-03T09:21:18.687Z,14.10
2018-10-03T09:23:45.686Z,14.20
2018-10-03T09:26:13.045Z,14.20
2018-10-03T09:28:40.614Z,14.20
2018-10-03T09:31:07.349Z,14.30
2018-10-03T09:33:34.765Z,14.30
2018-10-03T09:36:02.381Z,14.30
2018-10-03T09:38:29.376Z,14.30
2018-10-03T09:40:57.033Z,14.40
2018-10-03T09:43:23.775Z,14.40
2018-10-03T09:45:50.839Z,14.50
2018-10-03T09:48:18.122Z,14.50
2018-10-03T09:50:45.271Z,14.50
2018-10-03T09:53:12.123Z,14.60
2018-10-03T09:55:39.075Z,14.60
2018-10-03T09:58:05.803Z,14.60
2018-10-03T10:00:38.449Z,14.70
2018-10-03T10:03:05.225Z,14.70
2018-10-03T10:05:32.614Z,14.70
2018-10-03T10:07:59.841Z,14.70
2018-10-03T10:10:26.872Z,14.80
2018-10-03T10:12:53.729Z,14.90
2018-10-03T10:15:20.676Z,14.90
2018-10-03T10:17:47.768Z,14.90
2018-10-03T10:20:14.773Z,15.00
2018-10-03T10:22:41.658Z,15.00
2018-10-03T10:25:08.451Z,15.00
2018-10-03T10:27:35.264Z,15.00
2018-10-03T10:30:02.358Z,15.10
2018-10-03T10:32:30.035Z,15.10
2018-10-03T10:34:56.904Z,15.20
2018-10-03T10:37:23.914Z,15.20
2018-10-03T10:39:51.368Z,15.20
2018-10-03T10:42:18.285Z,15.30
2018-10-03T10:44:45.130Z,15.30
2018-10-03T10:47:11.963Z,15.30
2018-10-03T10:49:39.059Z,15.40
2018-10-03T10:52:06.064Z,15.40
2018-10-03T10:54:32.882Z,15.30
2018-10-03T10:57:00.187Z,15.50
2018-10-03T10:59:27.801Z,15.50
2018-10-03T11:01:55.621Z,15.60
2018-10-03T11:04:22.592Z,15.50
2018-10-03T11:06:49.444Z,15.60
2018-10-03T11:09:16.184Z,15.70
2018-10-03T11:11:42.985Z,15.70
2018-10-03T11:14:09.954Z,15.70
2018-10-03T11:16:36.786Z,15.80
2018-10-03T11:19:04.196Z,15.80
2018-10-03T11:21:31.013Z,15.90
2018-10-03T11:23:57.936Z,15.90
2018-10-03T11:26:24.589Z,15.90
2018-10-03T11:28:51.977Z,15.90
2018-10-03T11:31:19.061Z,16.00
2018-10-03T11:33:45.969Z,16.00
2018-10-03T11:36:12.892Z,16.10
2018-10-03T11:38:39.797Z,16.10
2018-10-03T11:41:06.651Z,16.10
2018-10-03T11:43:33.547Z,16.20
2018-10-03T11:46:00.355Z,16.20
2018-10-03T11:48:27.195Z,16.20
2018-10-03T11:50:54.257Z,16.30
2018-10-03T11:53:21.116Z,16.10
2018-10-03T11:55:47.867Z,16.30
2018-10-03T11:58:14.691Z,16.40
2018-10-03T12:00:41.995Z,16.40
2018-10-03T12:03:08.978Z,16.50
2018-10-03T12:05:35.821Z,16.50
2018-10-03T12:08:02.971Z,16.50
2018-10-03T12:10:29.960Z,16.60
2018-10-03T12:12:56.774Z,16.60
2018-10-03T12:15:23.630Z,16.60
2018-10-03T12:17:50.398Z,16.60
2018-10-03T12:20:17.513Z,16.70
2018-10-03T12:22:44.352Z,16.70
2018-10-03T12:25:11.226Z,16.70
2018-10-03T12:27:38.020Z,16.80
2018-10-03T12:30:04.866Z,16.80
2018-10-03T12:32:31.907Z,16.80
2018-10-03T12:34:58.652Z,16.80
2018-10-03T12:37:25.483Z,16.90
2018-10-03T12:39:52.543Z,16.90
2018-10-03T12:42:20.030Z,16.90
2018-10-03T12:44:46.990Z,16.90
2018-10-03T12:47:13.899Z,17.00
2018-10-03T12:49:40.755Z,16.90
2018-10-03T12:52:08.446Z,17.00
2018-10-03T12:54:35.319Z,17.00
2018-10-03T12:57:02.323Z,17.10
2018-10-03T12:59:29.831Z,17.10
2018-10-03T13:01:56.838Z,17.10
2018-10-03T13:04:23.593Z,17.10
2018-10-03T13:06:50.419Z,17.10
2018-10-03T13:09:17.956Z,17.20
2018-10-03T13:11:44.804Z,17.20
2018-10-03T13:14:12.225Z,17.20
2018-10-03T13:16:39.359Z,17.20
2018-10-03T13:19:06.348Z,17.20
2018-10-03T13:21:33.233Z,17.20
2018-10-03T13:23:59.995Z,17.30
2018-10-03T13:26:26.769Z,17.30
2018-10-03T13:28:54.993Z,17.30
2018-10-03T13:31:21.952Z,17.30
2018-10-03T13:33:48.821Z,17.30
2018-10-03T13:36:15.553Z,17.40
2018-10-03T13:38:42.547Z,17.40
2018-10-03T13:41:10.134Z,17.40
2018-10-03T13:43:37.738Z,17.40
2018-10-03T13:46:04.899Z,17.40
2018-10-03T13:48:31.633Z,17.40
2018-10-03T13:50:58.698Z,17.40
2018-10-03T13:53:25.432Z,17.40
2018-10-03T13:55:52.369Z,17.40
2018-10-03T13:58:19.863Z,17.40
2018-10-03T14:00:46.569Z,17.40
2018-10-03T14:03:14.031Z,17.40
2018-10-03T14:05:40.770Z,17.40
2018-10-03T14:08:07.776Z,17.40
2018-10-03T14:10:34.679Z,17.50
2018-10-03T14:13:02.145Z,17.50
2018-10-03T14:15:28.928Z,17.50
2018-10-03T14:17:56.074Z,17.50
2018-10-03T14:20:22.938Z,17.50
2018-10-03T14:22:50.058Z,17.50
2018-10-03T14:25:16.841Z,17.50
2018-10-03T14:27:43.551Z,17.50
2018-10-03T14:30:10.446Z,17.50
2018-10-03T14:32:37.441Z,17.50
2018-10-03T14:35:04.378Z,17.50
2018-10-03T14:37:31.136Z,17.50
2018-10-03T14:39:57.977Z,17.50
2018-10-03T14:42:24.987Z,17.50
2018-10-03T14:44:52.724Z,17.50
2018-10-03T14:47:19.532Z,17.50
2018-10-03T14:49:46.516Z,17.50
2018-10-03T14:52:13.910Z,17.50
2018-10-03T14:54:41.314Z,17.50
2018-10-03T14:57:09.062Z,17.40
2018-10-03T14:59:36.064Z,17.50
2018-10-03T15:02:02.823Z,17.50
2018-10-03T15:04:29.559Z,17.50
2018-10-03T15:06:56.651Z,17.50
2018-10-03T15:09:23.904Z,17.50
2018-10-03T15:11:50.726Z,17.50
2018-10-03T15:14:17.523Z,17.40
2018-10-03T15:16:44.580Z,17.50
2018-10-03T15:19:11.454Z,17.40
2018-10-03T15:21:38.289Z,17.40
2018-10-03T15:24:05.112Z,17.40
2018-10-03T15:26:31.834Z,17.40
2018-10-03T15:28:58.601Z,17.40
2018-10-03T15:31:25.525Z,17.40
2018-10-03T15:33:52.448Z,17.40
2018-10-03T15:36:19.564Z,17.40
2018-10-03T15:38:46.461Z,17.40
2018-10-03T15:41:13.324Z,17.40
2018-10-03T15:43:40.185Z,17.40
2018-10-03T15:46:08.412Z,17.40
2018-10-03T15:48:35.474Z,17.40
2018-10-03T15:51:02.306Z,17.40
2018-10-03T15:53:29.225Z,17.40
2018-10-03T15:55:56.617Z,17.40
2018-10-03T15:58:23.648Z,17.40
2018-10-03T16:00:50.469Z,17.40
2018-10-03T16:03:17.565Z,17.40
2018-10-03T16:05:44.535Z,17.40
2018-10-03T16:08:11.371Z,17.30
2018-10-03T16:10:38.366Z,17.30
2018-10-03T16:13:05.290Z,17.30
2018-10-03T16:15:32.878Z,17.30
2018-10-03T16:17:59.737Z,17.30
2018-10-03T16:20:26.681Z,17.30
2018-10-03T16:22:54.101Z,17.30
2018-10-03T16:25:21.407Z,17.30
2018-10-03T16:27:49.068Z,17.30
2018-10-03T16:30:16.624Z,17.30
2018-10-03T16:32:43.839Z,17.30
2018-10-03T16:35:10.785Z,17.20
2018-10-03T16:37:37.623Z,17.20
2018-10-03T16:40:04.499Z,17.20
2018-10-03T16:42:31.329Z,17.20
2018-10-03T16:44:58.327Z,17.20
2018-10-03T16:47:25.434Z,17.20
2018-10-03T16:49:52.867Z,17.20
2018-10-03T16:52:20.267Z,16.70
2018-10-03T16:54:47.367Z,17.20
2018-10-03T16:57:15.115Z,17.20
2018-10-03T16:59:42.085Z,17.10
2018-10-03T17:02:09.042Z,17.10
2018-10-03T17:04:35.964Z,17.20
2018-10-03T17:07:02.855Z,17.20
2018-10-03T17:09:29.680Z,17.10
2018-10-03T17:11:56.628Z,17.10
2018-10-03T17:14:32.487Z,17.10
2018-10-03T17:16:59.617Z,17.10
2018-10-03T17:19:26.344Z,17.10
2018-10-03T17:21:53.812Z,17.00
2018-10-03T17:24:21.908Z,17.00
2018-10-03T17:26:49.742Z,16.70
2018-10-03T17:29:16.794Z,17.00
2018-10-03T17:31:44.238Z,17.00
2018-10-03T17:34:12.244Z,17.00
2018-10-03T17:36:40.330Z,17.00
2018-10-03T17:39:08.084Z,17.00
2018-10-03T17:41:35.255Z,16.90
2018-10-03T17:44:02.124Z,16.60
2018-10-03T17:46:29.067Z,16.90
2018-10-03T17:48:56.728Z,16.90
2018-10-03T17:51:23.986Z,16.90
2018-10-03T17:53:50.902Z,16.90
2018-10-03T17:56:17.727Z,16.90
2018-10-03T17:58:44.764Z,16.80
2018-10-03T18:01:11.722Z,16.80
2018-10-03T18:03:39.013Z,16.80
2018-10-03T18:06:05.803Z,16.80
2018-10-03T18:08:32.509Z,16.80
2018-10-03T18:10:59.569Z,16.80
2018-10-03T18:13:26.479Z,16.70
2018-10-03T18:15:53.312Z,16.70
2018-10-03T18:18:20.252Z,16.70
2018-10-03T18:20:48.082Z,16.70
2018-10-03T18:23:15.225Z,16.70
2018-10-03T18:25:42.692Z,16.70
2018-10-03T18:28:11.055Z,16.70
2018-10-03T18:30:38.094Z,16.60
2018-10-03T18:33:05.531Z,16.60
2018-10-03T18:35:32.723Z,16.60
2018-10-03T18:38:00.706Z,16.60
2018-10-03T18:40:27.478Z,16.60
2018-10-03T18:42:54.469Z,16.60
2018-10-03T18:45:22.055Z,16.50
2018-10-03T18:47:48.811Z,16.50
2018-10-03T18:50:16.090Z,16.50
2018-10-03T18:52:42.901Z,16.50
2018-10-03T18:55:09.989Z,16.50
2018-10-03T18:57:36.833Z,16.50
2018-10-03T19:00:03.609Z,16.40
2018-10-03T19:02:30.667Z,16.40
2018-10-03T19:04:58.394Z,16.40
2018-10-03T19:07:25.117Z,16.40
2018-10-03T19:09:52.262Z,16.40
2018-10-03T19:12:19.258Z,16.40
2018-10-03T19:14:46.090Z,16.40
2018-10-03T19:17:13.058Z,16.30
2018-10-03T19:19:39.909Z,16.30
2018-10-03T19:22:07.080Z,16.30
2018-10-03T19:24:34.026Z,16.30
2018-10-03T19:27:00.872Z,16.30
2018-10-03T19:29:27.776Z,16.30
2018-10-03T19:31:54.846Z,16.30
2018-10-03T19:34:21.696Z,16.30
2018-10-03T19:36:48.486Z,16.20
2018-10-03T19:39:15.885Z,16.20
2018-10-03T19:41:43.219Z,16.20
2018-10-03T19:44:10.652Z,16.20
2018-10-03T19:46:39.258Z,16.20
2018-10-03T19:49:06.754Z,16.20
2018-10-03T19:51:33.802Z,16.20
2018-10-03T19:54:00.878Z,16.20
2018-10-03T19:56:27.695Z,16.10
2018-10-03T19:58:54.664Z,16.10
2018-10-03T20:01:21.357Z,16.10
2018-10-03T20:03:48.243Z,16.10
2018-10-03T20:06:15.371Z,16.10
2018-10-03T20:08:42.845Z,16.10
2018-10-03T20:13:55.721Z,16.10
2018-10-03T20:16:22.390Z,16.10
2018-10-03T20:18:49.163Z,16.00
2018-10-03T20:21:16.066Z,16.00
2018-10-03T20:23:43.469Z,16.00
2018-10-03T20:26:10.419Z,16.00
2018-10-03T20:28:37.216Z,16.10
2018-10-03T20:31:05.027Z,16.00
2018-10-03T20:33:31.927Z,16.00
2018-10-03T20:35:59.193Z,16.00
2018-10-03T20:46:44.828Z,15.90
2018-10-03T20:49:11.596Z,15.90
2018-10-03T20:51:38.394Z,15.90
2018-10-03T20:54:05.300Z,15.90
2018-10-03T20:56:32.218Z,15.90
2018-10-03T20:58:59.629Z,15.90
2018-10-03T21:01:26.621Z,15.90
2018-10-03T21:03:53.433Z,15.90
2018-10-03T21:06:20.751Z,15.90
2018-10-03T21:08:47.550Z,15.80
2018-10-03T21:11:14.547Z,15.80
2018-10-03T21:13:41.777Z,15.80
2018-10-03T21:16:08.587Z,15.80
2018-10-03T21:18:35.470Z,15.80
2018-10-03T21:21:02.329Z,15.80
2018-10-03T21:23:29.216Z,15.80
2018-10-03T21:25:56.002Z,15.80
2018-10-03T21:28:22.880Z,15.80
2018-10-03T21:30:50.089Z,15.80
2018-10-03T21:33:17.339Z,15.80
2018-10-03T21:35:44.556Z,15.80
2018-10-03T21:38:11.355Z,15.80
2018-10-03T21:40:38.925Z,15.80
2018-10-03T21:43:05.856Z,15.80
2018-10-03T21:45:32.732Z,15.70
2018-10-03T21:47:59.902Z,15.70
2018-10-03T21:50:26.690Z,15.70
2018-10-03T21:52:58.614Z,15.70
2018-10-03T21:55:26.194Z,15.70
2018-10-03T21:57:52.928Z,15.70
2018-10-03T22:00:19.933Z,15.70
2018-10-03T22:02:46.658Z,15.70
2018-10-03T22:05:13.804Z,15.70
2018-10-03T22:07:40.626Z,15.70
2018-10-03T22:10:08.243Z,15.70
2018-10-03T22:12:35.542Z,15.70
2018-10-03T22:15:02.560Z,15.70
2018-10-03T22:17:33.913Z,15.60
2018-10-03T22:20:01.016Z,15.60
2018-10-03T22:22:28.231Z,15.70
2018-10-03T22:24:55.026Z,15.70
2018-10-03T22:27:22.633Z,15.60
2018-10-03T22:29:49.407Z,15.60
2018-10-03T22:32:16.184Z,15.60
2018-10-03T22:34:43.003Z,15.60
2018-10-03T22:37:10.737Z,15.60
2018-10-03T22:39:37.782Z,15.60
2018-10-03T22:42:04.812Z,15.60
2018-10-03T22:44:31.582Z,15.60
2018-10-03T22:46:58.841Z,15.60
2018-10-03T22:49:25.608Z,15.60
2018-10-03T22:51:52.733Z,15.60
2018-10-03T22:54:19.601Z,15.60
2018-10-03T22:56:46.527Z,15.60
2018-10-03T22:59:13.649Z,15.60
2018-10-03T23:01:40.498Z,15.60
2018-10-03T23:04:08.035Z,15.60
2018-10-03T23:06:34.903Z,15.30
2018-10-03T23:09:01.689Z,15.60
2018-10-03T23:11:28.651Z,15.60
2018-10-03T23:13:55.637Z,15.50
2018-10-03T23:16:22.410Z,15.50
2018-10-03T23:18:49.253Z,15.50
2018-10-03T23:21:16.089Z,15.50
2018-10-03T23:23:43.124Z,15.50
2018-10-03T23:26:09.858Z,15.40
2018-10-03T23:28:36.849Z,15.50
2018-10-03T23:31:03.549Z,15.50
2018-10-03T23:33:30.339Z,15.50
2018-10-03T23:35:57.978Z,15.50
2018-10-03T23:38:25.150Z,15.50
2018-10-03T23:40:52.926Z,15.50
2018-10-03T23:43:19.916Z,15.50
2018-10-03T23:45:46.771Z,15.50
2018-10-03T23:48:13.510Z,15.40
2018-10-03T23:50:40.396Z,15.50
2018-10-03T23:53:07.182Z,15.50
2018-10-03T23:55:33.974Z,15.50
2018-10-03T23:58:00.813Z,15.50
